sensor_id;sensor_type;location;lat;lon;timestamp;pressure;altitude;pressure_sealevel;temperature;humidity
9822;BME280;4950;46.042;14.472;2023-05-21T00:01:52;97871.63;;;16.29;86.92
9822;BME280;4950;46.042;14.472;2023-05-21T00:04:20;97874.25;;;16.29;87.38
9822;BME280;4950;46.042;14.472;2023-05-21T00:06:46;97872.81;;;16.26;87.64
9822;BME280;4950;46.042;14.472;2023-05-21T00:09:13;97870.84;;;16.22;87.81
9822;BME280;4950;46.042;14.472;2023-05-21T00:11:39;97872.22;;;16.24;87.52
9822;BME280;4950;46.042;14.472;2023-05-21T00:14:07;97876.03;;;16.28;87.26
9822;BME280;4950;46.042;14.472;2023-05-21T00:16:34;97870.72;;;16.10;88.07
9822;BME280;4950;46.042;14.472;2023-05-21T00:19:01;97868.53;;;16.00;88.51
9822;BME280;4950;46.042;14.472;2023-05-21T00:21:27;97868.34;;;15.95;89.24
9822;BME280;4950;46.042;14.472;2023-05-21T00:23:55;97868.56;;;15.93;88.94
9822;BME280;4950;46.042;14.472;2023-05-21T00:26:23;97862.13;;;15.89;89.08
9822;BME280;4950;46.042;14.472;2023-05-21T00:28:49;97858.13;;;15.87;89.19
9822;BME280;4950;46.042;14.472;2023-05-21T00:31:17;97869.41;;;15.87;89.19
9822;BME280;4950;46.042;14.472;2023-05-21T00:33:44;97856.50;;;15.86;89.06
9822;BME280;4950;46.042;14.472;2023-05-21T00:36:10;97850.47;;;15.85;88.96
9822;BME280;4950;46.042;14.472;2023-05-21T00:38:41;97850.69;;;15.84;88.96
9822;BME280;4950;46.042;14.472;2023-05-21T00:41:09;97856.34;;;15.81;88.93
9822;BME280;4950;46.042;14.472;2023-05-21T00:43:36;97855.13;;;15.83;88.78
9822;BME280;4950;46.042;14.472;2023-05-21T00:46:05;97853.34;;;15.77;88.50
9822;BME280;4950;46.042;14.472;2023-05-21T00:48:33;97847.72;;;15.67;89.53
9822;BME280;4950;46.042;14.472;2023-05-21T00:51:00;97844.91;;;15.62;89.52
9822;BME280;4950;46.042;14.472;2023-05-21T00:53:26;97851.56;;;15.57;89.68
9822;BME280;4950;46.042;14.472;2023-05-21T00:55:54;97846.13;;;15.59;89.93
9822;BME280;4950;46.042;14.472;2023-05-21T00:58:21;97853.97;;;15.59;89.66
9822;BME280;4950;46.042;14.472;2023-05-21T01:00:48;97860.00;;;15.59;89.64
9822;BME280;4950;46.042;14.472;2023-05-21T01:03:14;97848.16;;;15.57;89.23
9822;BME280;4950;46.042;14.472;2023-05-21T01:05:42;97844.34;;;15.53;89.09
9822;BME280;4950;46.042;14.472;2023-05-21T01:08:11;97844.75;;;15.50;89.84
9822;BME280;4950;46.042;14.472;2023-05-21T01:10:39;97851.22;;;15.47;89.29
9822;BME280;4950;46.042;14.472;2023-05-21T01:13:06;97850.19;;;15.48;89.62
9822;BME280;4950;46.042;14.472;2023-05-21T01:15:32;97843.34;;;15.47;89.67
9822;BME280;4950;46.042;14.472;2023-05-21T01:17:59;97845.56;;;15.44;89.52
9822;BME280;4950;46.042;14.472;2023-05-21T01:20:27;97847.59;;;15.42;89.50
9822;BME280;4950;46.042;14.472;2023-05-21T01:22:57;97839.75;;;15.42;89.64
9822;BME280;4950;46.042;14.472;2023-05-21T01:25:25;97843.59;;;15.39;89.41
9822;BME280;4950;46.042;14.472;2023-05-21T01:27:51;97840.38;;;15.37;89.64
9822;BME280;4950;46.042;14.472;2023-05-21T01:30:19;97834.53;;;15.35;90.34
9822;BME280;4950;46.042;14.472;2023-05-21T01:32:47;97837.75;;;15.30;90.10
9822;BME280;4950;46.042;14.472;2023-05-21T01:35:21;97829.31;;;15.28;90.28
9822;BME280;4950;46.042;14.472;2023-05-21T01:37:50;97831.72;;;15.23;90.13
9822;BME280;4950;46.042;14.472;2023-05-21T01:40:23;97833.16;;;15.19;89.97
9822;BME280;4950;46.042;14.472;2023-05-21T01:42:51;97825.31;;;15.19;90.27
9822;BME280;4950;46.042;14.472;2023-05-21T01:45:18;97821.09;;;15.18;89.80
9822;BME280;4950;46.042;14.472;2023-05-21T01:47:49;97816.47;;;15.13;89.72
9822;BME280;4950;46.042;14.472;2023-05-21T01:50:17;97812.25;;;15.12;89.56
9822;BME280;4950;46.042;14.472;2023-05-21T01:52:48;97809.25;;;15.09;89.78
9822;BME280;4950;46.042;14.472;2023-05-21T01:55:15;97812.88;;;15.08;89.93
9822;BME280;4950;46.042;14.472;2023-05-21T01:57:43;97808.84;;;15.05;89.73
9822;BME280;4950;46.042;14.472;2023-05-21T02:00:11;97805.84;;;15.01;89.69
9822;BME280;4950;46.042;14.472;2023-05-21T02:02:39;97813.09;;;14.99;89.81
9822;BME280;4950;46.042;14.472;2023-05-21T02:05:06;97808.09;;;14.98;89.59
9822;BME280;4950;46.042;14.472;2023-05-21T02:07:32;97808.69;;;14.87;89.98
9822;BME280;4950;46.042;14.472;2023-05-21T02:09:59;97809.13;;;14.64;91.03
9822;BME280;4950;46.042;14.472;2023-05-21T02:12:26;97810.50;;;14.39;92.70
9822;BME280;4950;46.042;14.472;2023-05-21T02:14:55;97808.47;;;14.35;92.93
9822;BME280;4950;46.042;14.472;2023-05-21T02:17:22;97801.22;;;14.23;93.95
9822;BME280;4950;46.042;14.472;2023-05-21T02:19:49;97807.84;;;14.19;94.56
9822;BME280;4950;46.042;14.472;2023-05-21T02:22:15;97800.44;;;14.30;94.28
9822;BME280;4950;46.042;14.472;2023-05-21T02:24:42;97801.84;;;14.39;93.37
9822;BME280;4950;46.042;14.472;2023-05-21T02:27:09;97805.06;;;14.41;93.18
9822;BME280;4950;46.042;14.472;2023-05-21T02:29:37;97815.50;;;14.41;92.91
9822;BME280;4950;46.042;14.472;2023-05-21T02:32:06;97807.47;;;14.42;92.83
9822;BME280;4950;46.042;14.472;2023-05-21T02:34:33;97813.31;;;14.38;92.48
9822;BME280;4950;46.042;14.472;2023-05-21T02:37:01;97808.88;;;14.38;92.87
9822;BME280;4950;46.042;14.472;2023-05-21T02:39:28;97813.69;;;14.35;92.86
9822;BME280;4950;46.042;14.472;2023-05-21T02:41:54;97814.91;;;14.32;93.38
9822;BME280;4950;46.042;14.472;2023-05-21T02:44:21;97810.88;;;14.36;92.60
9822;BME280;4950;46.042;14.472;2023-05-21T02:46:48;97809.28;;;14.35;92.42
9822;BME280;4950;46.042;14.472;2023-05-21T02:49:16;97808.47;;;14.28;92.43
9822;BME280;4950;46.042;14.472;2023-05-21T02:51:42;97813.28;;;14.25;92.98
9822;BME280;4950;46.042;14.472;2023-05-21T02:54:09;97805.63;;;14.23;93.02
9822;BME280;4950;46.042;14.472;2023-05-21T02:56:35;97815.28;;;14.22;92.78
9822;BME280;4950;46.042;14.472;2023-05-21T02:59:02;97815.28;;;14.22;92.26
9822;BME280;4950;46.042;14.472;2023-05-21T03:01:28;97813.28;;;14.18;92.02
9822;BME280;4950;46.042;14.472;2023-05-21T03:03:55;97815.06;;;14.17;92.43
9822;BME280;4950;46.042;14.472;2023-05-21T03:06:23;97816.28;;;14.21;92.23
9822;BME280;4950;46.042;14.472;2023-05-21T03:08:49;97814.28;;;14.17;91.87
9822;BME280;4950;46.042;14.472;2023-05-21T03:11:17;97810.69;;;14.18;92.06
9822;BME280;4950;46.042;14.472;2023-05-21T03:13:44;97809.66;;;14.12;92.03
9822;BME280;4950;46.042;14.472;2023-05-21T03:16:10;97814.06;;;14.12;91.87
9822;BME280;4950;46.042;14.472;2023-05-21T03:18:38;97813.88;;;14.13;91.50
9822;BME280;4950;46.042;14.472;2023-05-21T03:21:05;97802.81;;;14.11;91.73
9822;BME280;4950;46.042;14.472;2023-05-21T03:23:33;97816.88;;;14.10;91.64
9822;BME280;4950;46.042;14.472;2023-05-21T03:25:59;97816.66;;;14.12;91.72
9822;BME280;4950;46.042;14.472;2023-05-21T03:28:26;97819.50;;;14.10;91.35
9822;BME280;4950;46.042;14.472;2023-05-21T03:30:53;97816.88;;;14.10;91.36
9822;BME280;4950;46.042;14.472;2023-05-21T03:33:20;97814.47;;;14.09;91.34
9822;BME280;4950;46.042;14.472;2023-05-21T03:35:47;97812.03;;;14.07;91.28
9822;BME280;4950;46.042;14.472;2023-05-21T03:38:13;97822.50;;;14.07;91.39
9822;BME280;4950;46.042;14.472;2023-05-21T03:40:41;97824.50;;;14.05;91.47
9822;BME280;4950;46.042;14.472;2023-05-21T03:43:08;97835.72;;;14.06;91.47
9822;BME280;4950;46.042;14.472;2023-05-21T03:45:35;97833.53;;;14.02;91.55
9822;BME280;4950;46.042;14.472;2023-05-21T03:48:01;97835.53;;;14.00;91.36
9822;BME280;4950;46.042;14.472;2023-05-21T03:50:28;97836.53;;;13.99;91.58
9822;BME280;4950;46.042;14.472;2023-05-21T03:52:55;97842.75;;;13.98;91.61
9822;BME280;4950;46.042;14.472;2023-05-21T03:55:22;97845.56;;;13.97;91.98
9822;BME280;4950;46.042;14.472;2023-05-21T03:57:49;97840.16;;;13.98;91.60
9822;BME280;4950;46.042;14.472;2023-05-21T04:00:16;97844.34;;;13.99;91.83
9822;BME280;4950;46.042;14.472;2023-05-21T04:02:43;97842.34;;;14.01;91.74
9822;BME280;4950;46.042;14.472;2023-05-21T04:05:10;97852.97;;;14.00;91.49
9822;BME280;4950;46.042;14.472;2023-05-21T04:07:36;97842.53;;;14.00;91.72
9822;BME280;4950;46.042;14.472;2023-05-21T04:10:03;97852.78;;;14.01;92.00
9822;BME280;4950;46.042;14.472;2023-05-21T04:12:30;97845.16;;;14.00;91.88
9822;BME280;4950;46.042;14.472;2023-05-21T04:14:58;97857.22;;;14.01;92.29
9822;BME280;4950;46.042;14.472;2023-05-21T04:17:26;97854.00;;;13.99;92.12
9822;BME280;4950;46.042;14.472;2023-05-21T04:19:53;97851.38;;;13.99;92.36
9822;BME280;4950;46.042;14.472;2023-05-21T04:22:19;97853.59;;;14.02;92.00
9822;BME280;4950;46.042;14.472;2023-05-21T04:24:47;97861.63;;;14.00;92.21
9822;BME280;4950;46.042;14.472;2023-05-21T04:27:14;97855.41;;;14.01;92.20
9822;BME280;4950;46.042;14.472;2023-05-21T04:29:40;97859.81;;;14.01;92.64
9822;BME280;4950;46.042;14.472;2023-05-21T04:32:09;97860.63;;;14.01;92.38
9822;BME280;4950;46.042;14.472;2023-05-21T04:34:35;97857.81;;;14.03;92.50
9822;BME280;4950;46.042;14.472;2023-05-21T04:37:03;97863.84;;;14.03;92.62
9822;BME280;4950;46.042;14.472;2023-05-21T04:39:31;97860.06;;;14.06;92.67
9822;BME280;4950;46.042;14.472;2023-05-21T04:41:58;97867.88;;;14.06;92.66
9822;BME280;4950;46.042;14.472;2023-05-21T04:44:26;97869.09;;;14.10;93.02
9822;BME280;4950;46.042;14.472;2023-05-21T04:46:52;97874.69;;;14.14;93.11
9822;BME280;4950;46.042;14.472;2023-05-21T04:49:20;97876.31;;;14.15;93.37
9822;BME280;4950;46.042;14.472;2023-05-21T04:51:47;97873.53;;;14.16;93.62
9822;BME280;4950;46.042;14.472;2023-05-21T04:54:14;97873.13;;;14.19;93.32
9822;BME280;4950;46.042;14.472;2023-05-21T04:56:41;97876.56;;;14.20;93.59
9822;BME280;4950;46.042;14.472;2023-05-21T04:59:08;97879.78;;;14.22;93.80
9822;BME280;4950;46.042;14.472;2023-05-21T05:01:35;97870.72;;;14.25;93.84
9822;BME280;4950;46.042;14.472;2023-05-21T05:04:03;97864.28;;;14.27;94.28
9822;BME280;4950;46.042;14.472;2023-05-21T05:06:31;97868.94;;;14.32;94.54
9822;BME280;4950;46.042;14.472;2023-05-21T05:08:57;97866.75;;;14.35;94.59
9822;BME280;4950;46.042;14.472;2023-05-21T05:11:24;97863.91;;;14.37;94.88
9822;BME280;4950;46.042;14.472;2023-05-21T05:13:50;97867.34;;;14.37;95.09
9822;BME280;4950;46.042;14.472;2023-05-21T05:16:17;97865.53;;;14.38;95.29
9822;BME280;4950;46.042;14.472;2023-05-21T05:18:49;97865.13;;;14.41;95.62
9822;BME280;4950;46.042;14.472;2023-05-21T05:21:16;97861.75;;;14.47;95.56
9822;BME280;4950;46.042;14.472;2023-05-21T05:23:44;97859.72;;;14.49;95.31
9822;BME280;4950;46.042;14.472;2023-05-21T05:26:10;97863.53;;;14.53;95.63
9822;BME280;4950;46.042;14.472;2023-05-21T05:28:37;97858.94;;;14.55;95.61
9822;BME280;4950;46.042;14.472;2023-05-21T05:31:03;97863.75;;;14.58;95.67
9822;BME280;4950;46.042;14.472;2023-05-21T05:33:31;97861.56;;;14.62;95.74
9822;BME280;4950;46.042;14.472;2023-05-21T05:35:57;97859.97;;;14.68;96.01
9822;BME280;4950;46.042;14.472;2023-05-21T05:38:24;97854.34;;;14.71;96.11
9822;BME280;4950;46.042;14.472;2023-05-21T05:40:52;97865.19;;;14.81;95.77
9822;BME280;4950;46.042;14.472;2023-05-21T05:43:19;97859.53;;;14.84;95.60
9822;BME280;4950;46.042;14.472;2023-05-21T05:45:45;97858.75;;;14.90;95.21
9822;BME280;4950;46.042;14.472;2023-05-21T05:48:12;97857.75;;;14.98;94.72
9822;BME280;4950;46.042;14.472;2023-05-21T05:50:39;97867.19;;;15.06;94.02
9822;BME280;4950;46.042;14.472;2023-05-21T05:53:05;97865.16;;;15.14;94.28
9822;BME280;4950;46.042;14.472;2023-05-21T05:55:32;97863.53;;;15.20;93.18
9822;BME280;4950;46.042;14.472;2023-05-21T05:58:00;97858.72;;;15.24;92.29
9822;BME280;4950;46.042;14.472;2023-05-21T06:00:27;97857.28;;;15.28;92.15
9822;BME280;4950;46.042;14.472;2023-05-21T06:02:53;97856.06;;;15.30;91.33
9822;BME280;4950;46.042;14.472;2023-05-21T06:05:20;97848.81;;;15.32;91.44
9822;BME280;4950;46.042;14.472;2023-05-21T06:07:46;97855.69;;;15.33;91.22
9822;BME280;4950;46.042;14.472;2023-05-21T06:10:13;97856.28;;;15.35;91.03
9822;BME280;4950;46.042;14.472;2023-05-21T06:12:40;97851.63;;;15.37;90.68
9822;BME280;4950;46.042;14.472;2023-05-21T06:15:08;97851.44;;;15.39;90.50
9822;BME280;4950;46.042;14.472;2023-05-21T06:17:35;97845.56;;;15.44;89.91
9822;BME280;4950;46.042;14.472;2023-05-21T06:20:02;97846.56;;;15.49;89.85
9822;BME280;4950;46.042;14.472;2023-05-21T06:22:29;97855.41;;;15.55;89.92
9822;BME280;4950;46.042;14.472;2023-05-21T06:24:55;97849.34;;;15.61;89.79
9822;BME280;4950;46.042;14.472;2023-05-21T06:27:22;97836.47;;;15.66;89.66
9822;BME280;4950;46.042;14.472;2023-05-21T06:29:49;97835.63;;;15.72;89.68
9822;BME280;4950;46.042;14.472;2023-05-21T06:32:17;97826.16;;;15.78;89.50
9822;BME280;4950;46.042;14.472;2023-05-21T06:34:45;97830.75;;;15.83;89.52
9822;BME280;4950;46.042;14.472;2023-05-21T06:37:12;97828.69;;;15.91;89.25
9822;BME280;4950;46.042;14.472;2023-05-21T06:39:38;97838.94;;;15.99;88.92
9822;BME280;4950;46.042;14.472;2023-05-21T06:42:05;97834.66;;;16.05;88.77
9822;BME280;4950;46.042;14.472;2023-05-21T06:44:31;97841.06;;;16.16;88.05
9822;BME280;4950;46.042;14.472;2023-05-21T06:46:58;97827.88;;;16.29;86.99
9822;BME280;4950;46.042;14.472;2023-05-21T06:49:26;97835.66;;;16.43;85.08
9822;BME280;4950;46.042;14.472;2023-05-21T06:51:52;97832.13;;;16.55;83.35
9822;BME280;4950;46.042;14.472;2023-05-21T06:54:19;97833.47;;;16.65;82.33
9822;BME280;4950;46.042;14.472;2023-05-21T06:56:46;97832.19;;;16.74;81.45
9822;BME280;4950;46.042;14.472;2023-05-21T06:59:12;97832.13;;;16.81;81.12
9822;BME280;4950;46.042;14.472;2023-05-21T07:01:39;97835.91;;;16.91;81.06
9822;BME280;4950;46.042;14.472;2023-05-21T07:04:08;97829.13;;;17.02;80.05
9822;BME280;4950;46.042;14.472;2023-05-21T07:06:36;97835.91;;;17.10;80.32
9822;BME280;4950;46.042;14.472;2023-05-21T07:09:03;97840.44;;;17.21;79.59
9822;BME280;4950;46.042;14.472;2023-05-21T07:11:30;97845.09;;;17.37;79.43
9822;BME280;4950;46.042;14.472;2023-05-21T07:13:57;97847.44;;;17.46;79.06
9822;BME280;4950;46.042;14.472;2023-05-21T07:16:25;97839.72;;;17.51;78.97
9822;BME280;4950;46.042;14.472;2023-05-21T07:18:52;97833.59;;;17.57;77.71
9822;BME280;4950;46.042;14.472;2023-05-21T07:21:18;97825.19;;;17.67;77.90
9822;BME280;4950;46.042;14.472;2023-05-21T07:23:46;97826.50;;;17.76;77.38
9822;BME280;4950;46.042;14.472;2023-05-21T07:26:13;97824.38;;;17.85;76.90
9822;BME280;4950;46.042;14.472;2023-05-21T07:28:39;97824.53;;;17.90;76.94
9822;BME280;4950;46.042;14.472;2023-05-21T07:31:06;97824.56;;;18.02;76.28
9822;BME280;4950;46.042;14.472;2023-05-21T07:33:33;97826.91;;;18.22;74.98
9822;BME280;4950;46.042;14.472;2023-05-21T07:35:59;97827.09;;;18.50;72.78
9822;BME280;4950;46.042;14.472;2023-05-21T07:38:26;97825.84;;;18.65;72.38
9822;BME280;4950;46.042;14.472;2023-05-21T07:40:54;97828.72;;;18.75;70.58
9822;BME280;4950;46.042;14.472;2023-05-21T07:43:21;97819.72;;;18.83;69.16
9822;BME280;4950;46.042;14.472;2023-05-21T07:45:48;97827.94;;;18.86;69.73
9822;BME280;4950;46.042;14.472;2023-05-21T07:48:15;97832.41;;;18.98;66.67
9822;BME280;4950;46.042;14.472;2023-05-21T07:50:41;97827.34;;;19.08;66.74
9822;BME280;4950;46.042;14.472;2023-05-21T07:53:09;97833.31;;;19.15;65.59
9822;BME280;4950;46.042;14.472;2023-05-21T07:55:35;97834.34;;;19.26;65.16
9822;BME280;4950;46.042;14.472;2023-05-21T07:58:03;97832.38;;;19.33;63.83
9822;BME280;4950;46.042;14.472;2023-05-21T08:00:41;97823.44;;;19.46;64.08
9822;BME280;4950;46.042;14.472;2023-05-21T08:03:07;97833.94;;;19.58;63.45
9822;BME280;4950;46.042;14.472;2023-05-21T08:05:35;97826.00;;;19.69;62.06
9822;BME280;4950;46.042;14.472;2023-05-21T08:08:02;97827.03;;;19.80;61.31
9822;BME280;4950;46.042;14.472;2023-05-21T08:10:29;97825.53;;;19.84;60.27
9822;BME280;4950;46.042;14.472;2023-05-21T08:12:56;97826.16;;;19.91;59.54
9822;BME280;4950;46.042;14.472;2023-05-21T08:15:24;97833.94;;;19.98;58.95
9822;BME280;4950;46.042;14.472;2023-05-21T08:17:50;97828.94;;;20.14;57.55
9822;BME280;4950;46.042;14.472;2023-05-21T08:20:17;97832.78;;;20.23;57.12
9822;BME280;4950;46.042;14.472;2023-05-21T08:22:44;97828.38;;;20.28;56.40
9822;BME280;4950;46.042;14.472;2023-05-21T08:25:12;97829.03;;;20.36;59.49
9822;BME280;4950;46.042;14.472;2023-05-21T08:27:39;97820.50;;;20.45;58.20
9822;BME280;4950;46.042;14.472;2023-05-21T08:30:07;97823.66;;;20.59;60.05
9822;BME280;4950;46.042;14.472;2023-05-21T08:32:36;97822.59;;;20.77;59.88
9822;BME280;4950;46.042;14.472;2023-05-21T08:35:04;97826.66;;;20.85;58.61
9822;BME280;4950;46.042;14.472;2023-05-21T08:37:31;97828.88;;;20.93;60.28
9822;BME280;4950;46.042;14.472;2023-05-21T08:39:58;97823.13;;;20.96;57.46
9822;BME280;4950;46.042;14.472;2023-05-21T08:42:31;97820.59;;;21.01;56.02
9822;BME280;4950;46.042;14.472;2023-05-21T08:45:00;97825.44;;;21.09;55.77
9822;BME280;4950;46.042;14.472;2023-05-21T08:47:31;97830.53;;;21.16;57.69
9822;BME280;4950;46.042;14.472;2023-05-21T08:50:02;97832.44;;;21.21;55.89
9822;BME280;4950;46.042;14.472;2023-05-21T08:52:30;97829.88;;;21.26;55.70
9822;BME280;4950;46.042;14.472;2023-05-21T08:54:56;97832.34;;;21.33;55.46
9822;BME280;4950;46.042;14.472;2023-05-21T08:57:24;97835.94;;;21.43;56.79
9822;BME280;4950;46.042;14.472;2023-05-21T08:59:53;97835.25;;;21.53;53.86
9822;BME280;4950;46.042;14.472;2023-05-21T09:02:19;97836.91;;;21.59;54.82
9822;BME280;4950;46.042;14.472;2023-05-21T09:04:47;97837.53;;;21.66;55.22
9822;BME280;4950;46.042;14.472;2023-05-21T09:07:16;97833.66;;;21.74;53.94
9822;BME280;4950;46.042;14.472;2023-05-21T09:09:44;97841.13;;;21.82;54.81
9822;BME280;4950;46.042;14.472;2023-05-21T09:12:12;97836.47;;;21.89;53.23
9822;BME280;4950;46.042;14.472;2023-05-21T09:14:39;97830.50;;;21.99;52.77
9822;BME280;4950;46.042;14.472;2023-05-21T09:17:08;97832.75;;;22.18;52.47
9822;BME280;4950;46.042;14.472;2023-05-21T09:19:38;97839.94;;;22.22;52.76
9822;BME280;4950;46.042;14.472;2023-05-21T09:22:07;97835.28;;;22.30;52.19
9822;BME280;4950;46.042;14.472;2023-05-21T09:24:35;97831.59;;;22.31;51.11
9822;BME280;4950;46.042;14.472;2023-05-21T09:27:02;97832.44;;;22.36;50.61
9822;BME280;4950;46.042;14.472;2023-05-21T09:29:32;97828.50;;;22.39;51.84
9822;BME280;4950;46.042;14.472;2023-05-21T09:32:05;97827.44;;;22.40;51.17
9822;BME280;4950;46.042;14.472;2023-05-21T09:34:34;97828.50;;;22.39;49.87
9822;BME280;4950;46.042;14.472;2023-05-21T09:37:01;97817.97;;;22.44;51.20
9822;BME280;4950;46.042;14.472;2023-05-21T09:39:27;97821.47;;;22.55;49.66
9822;BME280;4950;46.042;14.472;2023-05-21T09:41:56;97827.34;;;22.62;48.32
9822;BME280;4950;46.042;14.472;2023-05-21T09:44:23;97821.34;;;22.72;48.63
9822;BME280;4950;46.042;14.472;2023-05-21T09:46:55;97827.22;;;22.84;48.38
9822;BME280;4950;46.042;14.472;2023-05-21T09:49:23;97821.72;;;22.91;47.22
9822;BME280;4950;46.042;14.472;2023-05-21T09:51:54;97814.59;;;22.96;46.63
9822;BME280;4950;46.042;14.472;2023-05-21T09:54:21;97825.78;;;23.03;47.05
9822;BME280;4950;46.042;14.472;2023-05-21T09:56:48;97826.09;;;23.12;46.34
9822;BME280;4950;46.042;14.472;2023-05-21T09:59:17;97815.78;;;23.16;46.70
9822;BME280;4950;46.042;14.472;2023-05-21T10:01:44;97813.97;;;23.21;45.58
9822;BME280;4950;46.042;14.472;2023-05-21T10:04:11;97817.16;;;23.23;46.65
9822;BME280;4950;46.042;14.472;2023-05-21T10:06:42;97814.53;;;23.29;46.43
9822;BME280;4950;46.042;14.472;2023-05-21T10:09:10;97823.31;;;23.39;45.97
9822;BME280;4950;46.042;14.472;2023-05-21T10:11:38;97804.25;;;23.42;45.80
9822;BME280;4950;46.042;14.472;2023-05-21T10:14:13;97815.16;;;23.46;47.13
9822;BME280;4950;46.042;14.472;2023-05-21T10:16:43;97809.56;;;23.42;46.84
9822;BME280;4950;46.042;14.472;2023-05-21T10:19:10;97810.91;;;23.50;46.13
9822;BME280;4950;46.042;14.472;2023-05-21T10:21:38;97805.91;;;23.59;45.38
9822;BME280;4950;46.042;14.472;2023-05-21T10:24:07;97809.38;;;23.59;45.82
9822;BME280;4950;46.042;14.472;2023-05-21T10:26:35;97795.84;;;23.66;46.51
9822;BME280;4950;46.042;14.472;2023-05-21T10:29:06;97796.94;;;23.65;46.17
9822;BME280;4950;46.042;14.472;2023-05-21T10:31:34;97801.66;;;23.58;46.61
9822;BME280;4950;46.042;14.472;2023-05-21T10:34:02;97810.44;;;23.63;46.61
9822;BME280;4950;46.042;14.472;2023-05-21T10:36:30;97800.91;;;23.68;46.71
9822;BME280;4950;46.042;14.472;2023-05-21T10:38:59;97807.25;;;23.66;47.42
9822;BME280;4950;46.042;14.472;2023-05-21T10:41:27;97803.00;;;23.71;43.67
9822;BME280;4950;46.042;14.472;2023-05-21T10:44:04;97800.09;;;23.72;45.79
9822;BME280;4950;46.042;14.472;2023-05-21T10:46:46;97800.44;;;23.81;45.96
9822;BME280;4950;46.042;14.472;2023-05-21T10:49:44;97798.31;;;23.83;45.57
9822;BME280;4950;46.042;14.472;2023-05-21T10:52:24;97810.53;;;23.94;43.87
9822;BME280;4950;46.042;14.472;2023-05-21T10:55:10;97803.66;;;23.98;44.92
9822;BME280;4950;46.042;14.472;2023-05-21T10:58:06;97803.38;;;24.00;45.48
9822;BME280;4950;46.042;14.472;2023-05-21T11:00:37;97793.28;;;24.02;45.57
9822;BME280;4950;46.042;14.472;2023-05-21T11:03:05;97798.88;;;24.11;44.47
9822;BME280;4950;46.042;14.472;2023-05-21T11:05:40;97798.09;;;24.05;44.77
9822;BME280;4950;46.042;14.472;2023-05-21T11:08:25;97791.44;;;24.08;42.83
9822;BME280;4950;46.042;14.472;2023-05-21T11:10:53;97796.75;;;24.02;43.61
9822;BME280;4950;46.042;14.472;2023-05-21T11:13:22;97794.38;;;24.01;44.74
9822;BME280;4950;46.042;14.472;2023-05-21T11:16:13;97796.22;;;24.00;44.89
9822;BME280;4950;46.042;14.472;2023-05-21T11:18:58;97791.19;;;23.99;44.24
9822;BME280;4950;46.042;14.472;2023-05-21T11:21:29;97787.75;;;23.98;44.63
9822;BME280;4950;46.042;14.472;2023-05-21T11:24:04;97787.19;;;24.12;42.89
9822;BME280;4950;46.042;14.472;2023-05-21T11:27:00;97787.22;;;24.17;42.09
9822;BME280;4950;46.042;14.472;2023-05-21T11:29:36;97784.56;;;24.12;43.96
9822;BME280;4950;46.042;14.472;2023-05-21T11:32:06;97784.81;;;24.15;45.60
9822;BME280;4950;46.042;14.472;2023-05-21T11:34:42;97790.94;;;24.26;45.34
9822;BME280;4950;46.042;14.472;2023-05-21T11:37:38;97793.59;;;24.21;45.12
9822;BME280;4950;46.042;14.472;2023-05-21T11:40:22;97785.34;;;24.17;45.33
9822;BME280;4950;46.042;14.472;2023-05-21T11:42:52;97789.63;;;24.18;42.56
9822;BME280;4950;46.042;14.472;2023-05-21T11:45:20;97790.16;;;24.20;44.79
9822;BME280;4950;46.042;14.472;2023-05-21T11:47:47;97795.97;;;24.22;44.81
9822;BME280;4950;46.042;14.472;2023-05-21T11:50:14;97793.56;;;24.31;42.72
9822;BME280;4950;46.042;14.472;2023-05-21T11:52:43;97792.28;;;24.49;43.74
9822;BME280;4950;46.042;14.472;2023-05-21T11:55:11;97793.06;;;24.50;43.97
9822;BME280;4950;46.042;14.472;2023-05-21T11:57:41;97788.56;;;24.45;43.93
9822;BME280;4950;46.042;14.472;2023-05-21T12:00:13;97792.78;;;24.46;44.34
9822;BME280;4950;46.042;14.472;2023-05-21T12:02:44;97790.94;;;24.36;43.90
9822;BME280;4950;46.042;14.472;2023-05-21T12:05:11;97785.91;;;24.30;42.69
9822;BME280;4950;46.042;14.472;2023-05-21T12:07:38;97790.94;;;24.26;43.07
9822;BME280;4950;46.042;14.472;2023-05-21T12:10:07;97784.06;;;24.35;41.92
9822;BME280;4950;46.042;14.472;2023-05-21T12:12:34;97786.44;;;24.42;41.78
9822;BME280;4950;46.042;14.472;2023-05-21T12:15:01;97784.03;;;24.46;42.19
9822;BME280;4950;46.042;14.472;2023-05-21T12:17:29;97779.00;;;24.49;42.52
9822;BME280;4950;46.042;14.472;2023-05-21T12:19:57;97767.59;;;24.54;41.58
9822;BME280;4950;46.042;14.472;2023-05-21T12:22:24;97769.19;;;24.55;42.57
9822;BME280;4950;46.042;14.472;2023-05-21T12:24:52;97764.66;;;24.50;43.30
9822;BME280;4950;46.042;14.472;2023-05-21T12:27:21;97766.81;;;24.53;42.04
9822;BME280;4950;46.042;14.472;2023-05-21T12:29:48;97764.16;;;24.53;41.87
9822;BME280;4950;46.042;14.472;2023-05-21T12:32:16;97767.06;;;24.52;42.68
9822;BME280;4950;46.042;14.472;2023-05-21T12:34:44;97758.81;;;24.48;41.97
9822;BME280;4950;46.042;14.472;2023-05-21T12:37:11;97757.50;;;24.51;40.69
9822;BME280;4950;46.042;14.472;2023-05-21T12:39:39;97755.63;;;24.46;40.35
9822;BME280;4950;46.042;14.472;2023-05-21T12:42:06;97752.44;;;24.44;40.02
9822;BME280;4950;46.042;14.472;2023-05-21T12:44:34;97750.09;;;24.37;40.50
9822;BME280;4950;46.042;14.472;2023-05-21T12:47:01;97736.81;;;24.37;40.58
9822;BME280;4950;46.042;14.472;2023-05-21T12:49:35;97754.56;;;24.42;41.54
9822;BME280;4950;46.042;14.472;2023-05-21T12:52:06;97750.59;;;24.50;39.21
9822;BME280;4950;46.042;14.472;2023-05-21T12:54:34;97751.94;;;24.52;40.64
9822;BME280;4950;46.042;14.472;2023-05-21T12:57:06;97739.44;;;24.53;41.72
9822;BME280;4950;46.042;14.472;2023-05-21T12:59:45;97748.47;;;24.67;41.92
9822;BME280;4950;46.042;14.472;2023-05-21T13:02:14;97746.06;;;24.66;42.83
9822;BME280;4950;46.042;14.472;2023-05-21T13:04:41;97740.25;;;24.58;42.57
9822;BME280;4950;46.042;14.472;2023-05-21T13:07:08;97738.41;;;24.54;42.62
9822;BME280;4950;46.042;14.472;2023-05-21T13:09:35;97745.00;;;24.46;42.52
9822;BME280;4950;46.042;14.472;2023-05-21T13:12:02;97744.50;;;24.44;42.97
9822;BME280;4950;46.042;14.472;2023-05-21T13:14:28;97735.47;;;24.40;42.30
9822;BME280;4950;46.042;14.472;2023-05-21T13:16:56;97734.94;;;24.38;43.24